createdAt,value
2023-03-21T00:01:52.971Z,8.52
2023-03-21T00:06:47.885Z,10.75
2023-03-21T00:09:15.032Z,12.43
2023-03-21T00:11:42.382Z,12.27
2023-03-21T00:14:14.522Z,10.77
2023-03-21T00:16:45.966Z,9.07
2023-03-21T00:19:14.638Z,7.93
2023-03-21T00:22:03.308Z,13.82
2023-03-21T00:24:31.446Z,14.63
2023-03-21T00:27:10.751Z,8.95
2023-03-21T00:29:46.836Z,6.95
2023-03-21T00:32:13.996Z,10.13
2023-03-21T00:34:54.745Z,15.43
2023-03-21T00:37:28.452Z,14.52
2023-03-21T00:39:55.810Z,9.05
2023-03-21T00:42:22.963Z,9.13
2023-03-21T00:44:50.265Z,12.52
2023-03-21T00:47:17.523Z,9.60
2023-03-21T00:49:44.869Z,9.80
2023-03-21T00:52:20.185Z,8.73
2023-03-21T00:54:52.142Z,12.07
2023-03-21T00:57:22.056Z,13.98
2023-03-21T00:59:54.770Z,12.82
2023-03-21T01:02:23.093Z,6.22
2023-03-21T01:04:50.741Z,12.98
2023-03-21T01:07:18.019Z,10.18
2023-03-21T01:09:45.327Z,16.13
2023-03-21T01:12:12.538Z,13.75
2023-03-21T01:14:39.893Z,12.52
2023-03-21T01:17:07.189Z,10.30
2023-03-21T01:19:48.670Z,10.40
2023-03-21T01:22:18.570Z,10.70
2023-03-21T01:24:55.084Z,14.27
2023-03-21T01:27:24.187Z,15.88
2023-03-21T01:29:51.522Z,12.65
2023-03-21T01:32:18.838Z,12.55
2023-03-21T01:34:46.097Z,11.60
2023-03-21T01:37:13.325Z,11.05
2023-03-21T01:39:46.785Z,11.13
2023-03-21T01:42:14.918Z,11.20
2023-03-21T01:45:00.497Z,12.20
2023-03-21T01:47:38.203Z,13.13
2023-03-21T01:50:27.135Z,18.33
2023-03-21T01:53:15.520Z,11.13
2023-03-21T01:55:43.422Z,11.63
2023-03-21T01:58:30.688Z,13.23
2023-03-21T02:01:16.795Z,14.43
2023-03-21T02:03:51.730Z,17.20
2023-03-21T02:07:01.081Z,12.65
2023-03-21T02:09:44.495Z,11.95
2023-03-21T02:12:18.767Z,14.50
2023-03-21T02:14:49.332Z,17.00
2023-03-21T02:17:48.450Z,19.88
2023-03-21T02:20:51.211Z,13.38
2023-03-21T02:23:25.475Z,13.25
2023-03-21T02:26:11.371Z,10.80
2023-03-21T02:28:48.450Z,10.80
2023-03-21T02:31:50.694Z,10.40
2023-03-21T02:34:36.183Z,13.30
2023-03-21T02:37:23.505Z,8.02
2023-03-21T02:40:09.474Z,13.55
2023-03-21T02:43:04.273Z,14.07
2023-03-21T02:45:45.041Z,11.13
2023-03-21T02:48:49.753Z,12.15
2023-03-21T02:51:22.395Z,15.50
2023-03-21T02:54:26.505Z,11.20
2023-03-21T02:56:54.055Z,11.07
2023-03-21T02:59:23.502Z,16.40
2023-03-21T03:01:52.892Z,16.10
2023-03-21T03:04:22.370Z,18.25
2023-03-21T03:07:12.367Z,16.77
2023-03-21T03:09:57.409Z,12.48
2023-03-21T03:12:56.638Z,14.18
2023-03-21T03:15:45.672Z,19.08
2023-03-21T03:18:29.907Z,14.45
2023-03-21T03:21:24.288Z,17.83
2023-03-21T03:24:04.625Z,9.80
2023-03-21T03:26:43.637Z,16.85
2023-03-21T03:29:16.715Z,12.13
2023-03-21T03:31:54.804Z,12.60
2023-03-21T03:34:26.465Z,16.73
2023-03-21T03:39:36.369Z,15.13
2023-03-21T03:42:27.144Z,17.17
2023-03-21T03:45:01.971Z,10.68
2023-03-21T03:47:56.401Z,11.18
2023-03-21T03:50:29.745Z,11.13
2023-03-21T03:53:16.237Z,10.85
2023-03-21T03:55:46.270Z,12.30
2023-03-21T03:58:23.927Z,13.80
2023-03-21T04:00:57.151Z,11.82
2023-03-21T04:03:24.477Z,11.85
2023-03-21T04:05:55.176Z,14.32
2023-03-21T04:08:23.378Z,14.68
2023-03-21T04:10:54.068Z,6.18
2023-03-21T04:13:23.014Z,13.00
2023-03-21T04:16:03.137Z,11.75
2023-03-21T04:18:30.689Z,10.32
2023-03-21T04:20:58.363Z,20.33
2023-03-21T04:23:29.293Z,9.65
2023-03-21T04:25:57.382Z,14.68
2023-03-21T04:28:51.368Z,11.68
2023-03-21T04:31:25.988Z,12.85
2023-03-21T04:34:06.018Z,13.52
2023-03-21T04:36:39.219Z,12.48
2023-03-21T04:39:13.210Z,8.57
2023-03-21T04:44:10.654Z,12.68
2023-03-21T04:46:38.726Z,15.32
2023-03-21T04:49:09.454Z,12.77
2023-03-21T04:51:37.190Z,9.52
2023-03-21T04:56:36.301Z,11.65
2023-03-21T04:59:13.399Z,12.20
2023-03-21T05:01:41.320Z,12.55
2023-03-21T05:04:10.402Z,13.57
2023-03-21T05:06:38.569Z,13.13
2023-03-21T05:09:07.047Z,14.07
2023-03-21T05:11:37.818Z,10.48
2023-03-21T05:14:07.546Z,8.63
2023-03-21T05:16:36.530Z,10.88
2023-03-21T05:19:03.947Z,9.68
2023-03-21T05:21:41.812Z,9.90
2023-03-21T05:24:20.054Z,12.25
2023-03-21T05:26:52.408Z,11.43
2023-03-21T05:29:22.848Z,12.85
2023-03-21T05:31:59.788Z,8.98
2023-03-21T05:34:28.002Z,13.45
2023-03-21T05:36:55.708Z,7.78
2023-03-21T05:39:25.587Z,13.63
2023-03-21T05:42:06.441Z,8.88
2023-03-21T05:44:34.012Z,9.63
2023-03-21T05:47:04.919Z,11.63
2023-03-21T05:49:38.974Z,8.55
2023-03-21T05:52:06.537Z,7.47
2023-03-21T05:54:34.042Z,13.93
2023-03-21T05:57:02.304Z,5.65
2023-03-21T05:59:48.603Z,9.50
2023-03-21T06:02:17.252Z,7.00
2023-03-21T06:04:44.492Z,8.77
2023-03-21T06:07:11.739Z,6.20
2023-03-21T06:09:40.503Z,10.25
2023-03-21T06:12:08.442Z,9.73
2023-03-21T06:14:51.823Z,8.20
2023-03-21T06:17:28.996Z,11.63
2023-03-21T06:20:01.756Z,8.68
2023-03-21T06:22:33.777Z,15.38
2023-03-21T06:25:03.588Z,6.25
2023-03-21T06:27:31.341Z,11.90
2023-03-21T06:29:59.568Z,11.90
2023-03-21T06:32:28.893Z,9.48
2023-03-21T06:35:00.664Z,9.82
2023-03-21T06:37:28.138Z,7.72
2023-03-21T06:39:55.727Z,12.00
2023-03-21T06:42:23.629Z,9.30
2023-03-21T06:44:52.392Z,5.38
2023-03-21T06:47:19.592Z,5.57
2023-03-21T06:49:47.397Z,6.13
2023-03-21T06:52:14.653Z,9.23
2023-03-21T06:54:42.636Z,5.95
2023-03-21T06:57:11.922Z,4.88
2023-03-21T06:59:41.719Z,6.28
2023-03-21T07:02:12.244Z,3.50
2023-03-21T07:04:48.740Z,5.43
2023-03-21T07:07:26.451Z,6.55
2023-03-21T07:09:53.631Z,3.47
2023-03-21T07:12:22.015Z,8.07
2023-03-21T07:15:07.334Z,3.95
2023-03-21T07:17:35.005Z,3.05
2023-03-21T07:20:02.138Z,4.25
2023-03-21T07:22:29.478Z,4.35
2023-03-21T07:25:04.827Z,6.18
2023-03-21T07:27:40.904Z,2.95
2023-03-21T07:30:10.243Z,4.95
2023-03-21T07:32:38.188Z,5.38
2023-03-21T07:35:07.931Z,4.47
2023-03-21T07:37:37.843Z,7.00
2023-03-21T07:40:10.625Z,5.10
2023-03-21T07:42:41.373Z,3.47
2023-03-21T07:45:12.907Z,3.30
2023-03-21T07:47:40.441Z,9.38
2023-03-21T07:50:08.185Z,5.00
2023-03-21T07:52:35.577Z,3.42
2023-03-21T07:55:02.719Z,5.68
2023-03-21T07:57:29.817Z,3.67
2023-03-21T07:59:57.025Z,6.60
2023-03-21T08:02:24.917Z,4.88
2023-03-21T08:04:52.501Z,5.45
2023-03-21T08:07:20.079Z,5.88
2023-03-21T08:09:47.308Z,6.68
2023-03-21T08:12:14.587Z,4.07
2023-03-21T08:14:41.854Z,4.93
2023-03-21T08:17:09.593Z,4.22
2023-03-21T08:19:37.620Z,2.90
2023-03-21T08:22:06.762Z,2.88
2023-03-21T08:24:34.292Z,4.25
2023-03-21T08:27:01.888Z,4.25
2023-03-21T08:29:29.121Z,3.80
2023-03-21T08:31:56.350Z,4.72
2023-03-21T08:34:23.645Z,8.43
2023-03-21T08:36:50.872Z,7.00
2023-03-21T08:39:18.143Z,7.63
2023-03-21T08:41:45.631Z,6.47
2023-03-21T08:44:12.926Z,6.03
2023-03-21T08:46:40.072Z,8.13
2023-03-21T08:49:07.353Z,12.45
2023-03-21T08:51:34.464Z,9.45
2023-03-21T08:54:01.652Z,5.55
2023-03-21T08:56:28.950Z,7.90
2023-03-21T08:58:56.661Z,9.48
2023-03-21T09:01:23.781Z,4.72
2023-03-21T09:03:50.951Z,7.00
2023-03-21T09:06:18.762Z,8.50
2023-03-21T09:08:46.461Z,11.40
2023-03-21T09:11:13.967Z,11.85
2023-03-21T09:13:41.180Z,3.97
2023-03-21T09:16:08.848Z,5.20
2023-03-21T09:18:47.967Z,6.78
2023-03-21T09:21:18.500Z,6.40
2023-03-21T09:23:46.285Z,8.85
2023-03-21T09:26:14.536Z,6.85
2023-03-21T09:28:42.906Z,4.82
2023-03-21T09:31:11.906Z,10.20
2023-03-21T09:33:42.667Z,8.48
2023-03-21T09:36:14.374Z,9.32
2023-03-21T09:38:43.166Z,8.52
2023-03-21T09:41:19.611Z,7.60
2023-03-21T09:44:03.725Z,4.72
2023-03-21T09:46:49.124Z,6.95
2023-03-21T09:49:25.768Z,7.97
2023-03-21T09:51:56.634Z,6.72
2023-03-21T09:54:35.659Z,7.82
2023-03-21T09:57:15.012Z,10.57
2023-03-21T09:59:42.926Z,7.20
2023-03-21T10:02:32.533Z,6.82
2023-03-21T10:05:00.854Z,7.60
2023-03-21T10:07:32.064Z,9.90
2023-03-21T10:10:02.048Z,5.80
2023-03-21T10:12:30.752Z,9.10
2023-03-21T10:15:00.720Z,6.00
2023-03-21T10:17:43.499Z,5.28
2023-03-21T10:20:12.039Z,6.35
2023-03-21T10:22:39.900Z,7.15
2023-03-21T10:25:10.179Z,5.47
2023-03-21T10:27:37.589Z,3.10
2023-03-21T10:30:07.609Z,5.32
2023-03-21T10:32:35.968Z,5.95
2023-03-21T10:35:05.053Z,6.57
2023-03-21T10:37:32.988Z,2.72
2023-03-21T10:40:00.197Z,3.63
2023-03-21T10:42:31.476Z,5.15
2023-03-21T10:44:59.504Z,2.17
2023-03-21T10:47:36.190Z,4.85
2023-03-21T10:50:09.001Z,2.50
2023-03-21T10:52:41.821Z,2.80
2023-03-21T10:55:21.783Z,2.97
2023-03-21T10:57:53.208Z,2.83
2023-03-21T11:00:25.947Z,6.03
2023-03-21T11:02:54.468Z,3.92
2023-03-21T11:05:37.058Z,1.33
2023-03-21T11:08:18.746Z,3.42
2023-03-21T11:10:52.067Z,6.40
2023-03-21T11:13:38.326Z,5.78
2023-03-21T11:16:30.201Z,4.30
2023-03-21T11:19:02.138Z,3.47
2023-03-21T11:21:37.152Z,3.53
2023-03-21T11:24:07.564Z,6.30
2023-03-21T11:26:37.732Z,5.88
2023-03-21T11:29:30.080Z,6.00
2023-03-21T11:32:09.167Z,7.35
2023-03-21T11:34:48.156Z,5.53
2023-03-21T11:37:21.500Z,5.47
2023-03-21T11:39:54.745Z,3.97
2023-03-21T11:42:33.175Z,6.18
2023-03-21T11:45:22.578Z,4.63
2023-03-21T11:47:53.182Z,6.40
2023-03-21T11:50:41.708Z,2.40
2023-03-21T11:53:33.028Z,6.22
2023-03-21T11:56:24.362Z,9.02
2023-03-21T11:59:16.342Z,5.05
2023-03-21T12:01:52.536Z,6.60
2023-03-21T12:04:33.043Z,10.35
2023-03-21T12:07:00.130Z,3.67
2023-03-21T12:10:08.252Z,9.90
2023-03-21T12:12:56.061Z,6.55
2023-03-21T12:15:25.914Z,10.57
2023-03-21T12:18:08.150Z,5.60
2023-03-21T12:20:43.500Z,7.70
2023-03-21T12:23:26.016Z,8.18
2023-03-21T12:28:42.349Z,5.28
2023-03-21T12:31:33.769Z,7.95
2023-03-21T12:34:16.029Z,7.43
2023-03-21T12:36:52.498Z,5.18
2023-03-21T12:39:29.225Z,6.00
2023-03-21T12:42:05.701Z,8.10
2023-03-21T12:44:41.856Z,9.13
2023-03-21T12:47:19.969Z,5.60
2023-03-21T12:50:14.448Z,9.05
2023-03-21T12:52:50.268Z,5.53
2023-03-21T12:55:24.940Z,11.77
2023-03-21T12:58:18.865Z,8.18
2023-03-21T13:00:56.935Z,6.28
2023-03-21T13:03:40.212Z,8.13
2023-03-21T13:06:11.874Z,5.68
2023-03-21T13:09:05.448Z,4.70
2023-03-21T13:11:34.000Z,5.55
2023-03-21T13:14:06.462Z,3.75
2023-03-21T13:17:05.785Z,3.40
2023-03-21T13:19:54.197Z,6.60
2023-03-21T13:22:30.320Z,4.57
2023-03-21T13:25:22.054Z,4.97
2023-03-21T13:28:04.606Z,7.20
2023-03-21T13:30:32.648Z,12.43
2023-03-21T13:33:16.853Z,9.77
2023-03-21T13:35:45.992Z,8.35
2023-03-21T13:38:26.777Z,6.07
2023-03-21T13:40:58.425Z,6.63
2023-03-21T13:43:53.590Z,10.18
2023-03-21T13:46:26.854Z,6.35
2023-03-21T13:48:58.772Z,6.60
2023-03-21T13:51:29.567Z,2.75
2023-03-21T13:54:21.881Z,9.10
2023-03-21T13:56:56.881Z,8.13
2023-03-21T13:59:39.824Z,5.00
2023-03-21T14:02:30.275Z,7.15
2023-03-21T14:05:17.865Z,7.55
2023-03-21T14:07:49.867Z,9.48
2023-03-21T14:10:41.711Z,8.57
2023-03-21T14:13:16.579Z,9.10
2023-03-21T14:15:56.375Z,7.63
2023-03-21T14:18:51.719Z,5.75
2023-03-21T14:21:24.166Z,4.63
2023-03-21T14:23:58.224Z,10.38
2023-03-21T14:26:29.049Z,8.25
2023-03-21T14:28:56.489Z,5.82
2023-03-21T14:31:26.640Z,7.15
2023-03-21T14:33:59.388Z,6.93
2023-03-21T14:36:30.799Z,6.28
2023-03-21T14:39:05.759Z,6.77
2023-03-21T14:41:34.711Z,11.65
2023-03-21T14:44:15.483Z,7.40
2023-03-21T14:46:45.157Z,5.85
2023-03-21T14:49:18.734Z,7.10
2023-03-21T14:51:47.096Z,14.82
2023-03-21T14:54:19.851Z,12.10
2023-03-21T14:56:56.354Z,8.30
2023-03-21T14:59:27.833Z,9.05
2023-03-21T15:01:55.665Z,6.03
2023-03-21T15:04:23.238Z,6.95
2023-03-21T15:06:53.279Z,4.45
2023-03-21T15:09:22.936Z,7.97
2023-03-21T15:11:52.241Z,8.82
2023-03-21T15:14:46.210Z,7.80
2023-03-21T15:17:14.028Z,5.15
2023-03-21T15:19:43.678Z,11.18
2023-03-21T15:22:34.319Z,8.52
2023-03-21T15:25:05.286Z,11.07
2023-03-21T15:27:40.606Z,6.95
2023-03-21T15:30:21.282Z,14.65
2023-03-21T15:32:49.203Z,14.13
2023-03-21T15:35:25.537Z,6.70
2023-03-21T15:37:58.621Z,8.45
2023-03-21T15:40:30.964Z,8.60
2023-03-21T15:45:50.657Z,12.50
2023-03-21T15:48:25.007Z,12.18
2023-03-21T15:51:06.095Z,10.48
2023-03-21T15:53:35.555Z,7.65
2023-03-21T15:56:06.132Z,6.45
2023-03-21T15:58:42.022Z,8.38
2023-03-21T16:01:18.367Z,7.70
2023-03-21T16:03:48.512Z,11.55
2023-03-21T16:06:19.956Z,13.68
2023-03-21T16:08:51.444Z,9.37
2023-03-21T16:11:26.146Z,6.28
2023-03-21T16:13:54.792Z,8.68
2023-03-21T16:16:27.430Z,11.25
2023-03-21T16:18:56.637Z,7.80
2023-03-21T16:21:28.523Z,11.40
2023-03-21T16:23:56.239Z,7.15
2023-03-21T16:26:26.286Z,10.10
2023-03-21T16:28:53.717Z,11.25
2023-03-21T16:31:23.714Z,5.95
2023-03-21T16:33:51.462Z,11.02
2023-03-21T16:36:30.267Z,8.63
2023-03-21T16:38:58.310Z,7.63
2023-03-21T16:41:27.649Z,7.97
2023-03-21T16:43:54.908Z,9.20
2023-03-21T16:46:26.609Z,16.45
2023-03-21T16:48:56.824Z,9.70
2023-03-21T16:51:30.622Z,14.70
2023-03-21T16:53:58.537Z,9.98
2023-03-21T16:56:29.404Z,13.05
2023-03-21T16:58:58.135Z,8.23
2023-03-21T17:01:27.579Z,9.43
2023-03-21T17:03:55.101Z,15.15
2023-03-21T17:06:24.672Z,12.57
2023-03-21T17:08:53.179Z,10.80
2023-03-21T17:11:22.445Z,10.43
2023-03-21T17:13:51.426Z,8.82
2023-03-21T17:16:22.266Z,12.57
2023-03-21T17:18:50.960Z,7.82
2023-03-21T17:21:24.674Z,9.70
2023-03-21T17:23:52.885Z,7.88
2023-03-21T17:26:22.940Z,11.18
2023-03-21T17:28:50.766Z,10.57
2023-03-21T17:31:20.957Z,10.93
2023-03-21T17:33:48.563Z,11.05
2023-03-21T17:36:30.280Z,9.70
2023-03-21T17:38:57.968Z,13.60
2023-03-21T17:41:25.484Z,6.60
2023-03-21T17:43:52.731Z,5.13
2023-03-21T17:46:22.613Z,4.88
2023-03-21T17:48:50.133Z,4.55
2023-03-21T17:51:17.970Z,7.13
2023-03-21T17:53:48.318Z,5.60
2023-03-21T17:56:20.322Z,6.85
2023-03-21T17:58:47.723Z,5.80
2023-03-21T18:01:15.539Z,6.32
2023-03-21T18:03:42.779Z,6.82
2023-03-21T18:06:21.066Z,4.57
2023-03-21T18:08:49.210Z,9.82
2023-03-21T18:11:20.386Z,5.78
2023-03-21T18:13:48.711Z,8.85
2023-03-21T18:16:19.132Z,6.13
2023-03-21T18:18:46.767Z,8.35
2023-03-21T18:21:18.951Z,10.00
2023-03-21T18:23:47.812Z,8.50
2023-03-21T18:26:18.964Z,8.40
2023-03-21T18:29:34.249Z,16.98
2023-03-21T18:31:37.352Z,13.15
2023-03-21T18:34:04.567Z,8.43
2023-03-21T18:36:31.917Z,9.90
2023-03-21T18:38:59.265Z,5.10
2023-03-21T18:41:26.585Z,6.68
2023-03-21T18:44:05.245Z,7.82
2023-03-21T18:46:46.981Z,10.77
2023-03-21T18:50:01.668Z,11.45
2023-03-21T18:52:03.492Z,7.32
2023-03-21T18:54:31.102Z,8.55
2023-03-21T18:57:34.992Z,8.45
2023-03-21T18:59:45.967Z,11.40
2023-03-21T19:02:14.990Z,10.85
2023-03-21T19:04:43.385Z,8.50
2023-03-21T19:07:10.852Z,11.48
2023-03-21T19:10:01.592Z,12.88
2023-03-21T19:12:27.273Z,9.68
2023-03-21T19:14:54.889Z,6.80
2023-03-21T19:18:23.186Z,8.00
2023-03-21T19:20:12.050Z,8.48
2023-03-21T19:22:39.787Z,11.90
2023-03-21T19:25:08.218Z,11.43
2023-03-21T19:27:36.559Z,11.10
2023-03-21T19:30:15.412Z,12.85
2023-03-21T19:32:43.633Z,16.55
2023-03-21T19:35:11.256Z,9.75
2023-03-21T19:37:38.582Z,10.23
2023-03-21T19:40:07.121Z,10.75
2023-03-21T19:42:36.349Z,10.20
2023-03-21T19:45:05.465Z,14.60
2023-03-21T19:47:33.001Z,14.20
2023-03-21T19:50:47.712Z,14.18
2023-03-21T19:52:48.243Z,9.55
2023-03-21T19:55:15.591Z,11.50
2023-03-21T19:57:42.861Z,16.63
2023-03-21T20:00:13.765Z,16.35
2023-03-21T20:02:41.191Z,13.80
2023-03-21T20:05:08.789Z,12.57
2023-03-21T20:07:36.153Z,16.42
2023-03-21T20:10:04.026Z,12.32
2023-03-21T20:12:32.821Z,10.93
2023-03-21T20:15:12.103Z,12.48
2023-03-21T20:17:44.897Z,13.30
2023-03-21T20:20:17.142Z,15.55
2023-03-21T20:25:33.983Z,11.80
2023-03-21T20:28:15.198Z,12.75
2023-03-21T20:30:53.434Z,15.57
2023-03-21T20:33:21.062Z,11.88
2023-03-21T20:38:37.600Z,16.52
2023-03-21T20:41:06.741Z,9.95
2023-03-21T20:46:22.152Z,9.90
2023-03-21T20:48:49.867Z,13.80
2023-03-21T20:52:27.426Z,11.23
2023-03-21T20:54:05.287Z,12.27
2023-03-21T20:56:32.872Z,16.55
2023-03-21T20:59:14.930Z,9.57
2023-03-21T21:01:43.334Z,16.38
2023-03-21T21:04:11.686Z,15.85
2023-03-21T21:06:39.306Z,13.50
2023-03-21T21:09:06.599Z,14.27
2023-03-21T21:14:21.296Z,12.48
2023-03-21T21:16:48.597Z,14.88
2023-03-21T21:19:21.735Z,9.55
2023-03-21T21:21:50.007Z,10.98
2023-03-21T21:24:17.249Z,9.90
2023-03-21T21:26:46.398Z,7.43
2023-03-21T21:29:16.835Z,10.65
2023-03-21T21:31:49.047Z,10.77
2023-03-21T21:36:45.787Z,14.57
2023-03-21T21:39:15.643Z,10.52
2023-03-21T21:41:43.603Z,15.65
2023-03-21T21:44:11.466Z,13.75
2023-03-21T21:46:38.979Z,19.13
2023-03-21T21:49:06.711Z,15.63
2023-03-21T21:51:35.150Z,12.75
2023-03-21T21:54:04.380Z,12.05
2023-03-21T21:56:36.902Z,6.97
2023-03-21T21:59:05.569Z,18.40
2023-03-21T22:01:38.776Z,15.07
2023-03-21T22:04:11.188Z,14.00
2023-03-21T22:06:39.021Z,10.65
2023-03-21T22:09:08.729Z,21.05
2023-03-21T22:11:40.130Z,12.13
2023-03-21T22:14:08.274Z,9.80
2023-03-21T22:16:35.684Z,10.25
2023-03-21T22:19:03.153Z,12.23
2023-03-21T22:21:33.203Z,18.38
2023-03-21T22:24:00.596Z,12.73
2023-03-21T22:26:28.037Z,13.38
2023-03-21T22:28:55.498Z,11.10
2023-03-21T22:31:26.220Z,13.20
2023-03-21T22:33:53.502Z,12.88
2023-03-21T22:36:23.929Z,20.80
2023-03-21T22:38:51.452Z,16.45
2023-03-21T22:41:19.493Z,14.48
2023-03-21T22:43:46.624Z,14.68
2023-03-21T22:46:14.048Z,11.18
2023-03-21T22:48:41.582Z,13.13
2023-03-21T22:51:09.033Z,8.85
2023-03-21T22:53:36.419Z,16.10
2023-03-21T22:56:03.781Z,13.15
2023-03-21T22:58:31.043Z,12.00
2023-03-21T23:01:02.785Z,13.50
2023-03-21T23:03:30.060Z,16.50
2023-03-21T23:06:03.947Z,6.97
2023-03-21T23:08:31.223Z,14.65
2023-03-21T23:10:58.412Z,15.63
2023-03-21T23:13:26.675Z,14.35
2023-03-21T23:15:53.889Z,15.85
2023-03-21T23:18:21.080Z,14.68
2023-03-21T23:20:49.869Z,10.63
2023-03-21T23:23:17.535Z,14.05
2023-03-21T23:25:45.419Z,11.45
2023-03-21T23:28:12.952Z,9.57
2023-03-21T23:30:40.596Z,7.47
2023-03-21T23:33:08.026Z,12.48
2023-03-21T23:35:38.352Z,13.27
2023-03-21T23:38:06.041Z,14.40
2023-03-21T23:40:33.121Z,10.25
2023-03-21T23:43:00.572Z,11.10
2023-03-21T23:45:27.699Z,13.77
2023-03-21T23:47:54.965Z,11.95
2023-03-21T23:50:22.208Z,7.20
2023-03-21T23:52:49.434Z,7.80
2023-03-21T23:55:16.637Z,11.57
2023-03-21T23:57:43.912Z,6.63
